Time;durP1;ratioP1;P1;durP2;ratioP2;P2;SDS_P1;SDS_P2;PMS_P1;PMS_P2;Temp;Humidity;BMP_temperature;BMP_pressure;BME280_temperature;BME280_humidity;BME280_pressure;Samples;Min_cycle;Max_cycle;Signal;HPM_P1;HPM_P2
2021/03/11 00:00:42;;;;;;;49.97;27.60;;;;;;;;;;5031320;28;20213;-71
2021/03/11 00:03:10;;;;;;;52.77;28.50;;;;;;;;;;5032123;28;20187;-71
2021/03/11 00:05:37;;;;;;;55.93;27.90;;;;;;;;;;5035084;28;20186;-71
2021/03/11 00:08:03;;;;;;;45.70;24.77;;;;;;;;;;5027375;28;20182;-71
2021/03/11 00:10:29;;;;;;;44.97;26.03;;;;;;;;;;5033167;28;20240;-71
2021/03/11 00:12:55;;;;;;;50.20;26.43;;;;;;;;;;5030266;28;20596;-71
2021/03/11 00:15:22;;;;;;;49.77;26.80;;;;;;;;;;5038703;28;21511;-71
2021/03/11 00:17:47;;;;;;;56.47;25.70;;;;;;;;;;5034863;28;20221;-71
2021/03/11 00:20:15;;;;;;;45.40;23.83;;;;;;;;;;5029226;28;20182;-69
2021/03/11 00:22:41;;;;;;;49.27;24.73;;;;;;;;;;5036787;28;20186;-71
2021/03/11 00:25:08;;;;;;;43.73;23.53;;;;;;;;;;5033257;28;20190;-71
2021/03/11 00:27:34;;;;;;;43.53;24.50;;;;;;;;;;5039557;28;20264;-71
2021/03/11 00:29:59;;;;;;;44.80;24.17;;;;;;;;;;5026035;28;20737;-70
2021/03/11 00:32:24;;;;;;;47.30;23.97;;;;;;;;;;5032552;28;20182;-71
2021/03/11 00:34:50;;;;;;;42.70;23.10;;;;;;;;;;5033244;28;20201;-70
2021/03/11 00:37:15;;;;;;;40.77;23.37;;;;;;;;;;5034265;28;20291;-71
2021/03/11 00:39:40;;;;;;;38.73;20.83;;;;;;;;;;5030910;28;20711;-71
2021/03/11 00:42:06;;;;;;;43.77;22.10;;;;;;;;;;5041195;28;20247;-71
2021/03/11 00:44:31;;;;;;;45.97;23.63;;;;;;;;;;5030660;28;20182;-71
2021/03/11 00:46:57;;;;;;;41.13;23.07;;;;;;;;;;5039840;28;20181;-71
2021/03/11 00:49:22;;;;;;;41.50;21.80;;;;;;;;;;5038452;28;20191;-71
2021/03/11 00:51:47;;;;;;;39.83;22.43;;;;;;;;;;5028023;28;20193;-71
2021/03/11 00:54:13;;;;;;;40.00;22.93;;;;;;;;;;5041563;28;20201;-71
2021/03/11 00:56:38;;;;;;;38.87;21.20;;;;;;;;;;5029718;28;20599;-71
2021/03/11 00:59:03;;;;;;;44.47;22.80;;;;;;;;;;5034951;28;20613;-71
2021/03/11 01:01:30;;;;;;;40.57;22.13;;;;;;;;;;5029053;28;20268;-71
2021/03/11 01:03:55;;;;;;;43.63;22.23;;;;;;;;;;5041091;28;20201;-71
2021/03/11 01:06:21;;;;;;;40.67;22.10;;;;;;;;;;5030029;28;20208;-69
2021/03/11 01:08:46;;;;;;;45.67;22.73;;;;;;;;;;5033120;28;20674;-71
2021/03/11 01:11:11;;;;;;;42.73;22.23;;;;;;;;;;5032582;28;20200;-71
2021/03/11 01:13:37;;;;;;;39.43;21.17;;;;;;;;;;5041086;28;20201;-71
2021/03/11 01:16:02;;;;;;;38.17;21.37;;;;;;;;;;5031343;28;20197;-71
2021/03/11 01:18:28;;;;;;;34.10;19.93;;;;;;;;;;5042140;28;20274;-71
2021/03/11 01:20:53;;;;;;;39.07;19.83;;;;;;;;;;5044070;28;20197;-70
2021/03/11 01:23:18;;;;;;;39.30;21.40;;;;;;;;;;5031577;28;20204;-71
2021/03/11 01:25:44;;;;;;;37.67;20.73;;;;;;;;;;5037234;28;20213;-72
2021/03/11 01:28:09;;;;;;;44.30;21.20;;;;;;;;;;5031409;28;20185;-69
2021/03/11 01:30:34;;;;;;;35.23;20.43;;;;;;;;;;5041240;28;20291;-71
2021/03/11 01:33:00;;;;;;;38.47;20.17;;;;;;;;;;5035704;28;20215;-70
2021/03/11 01:35:25;;;;;;;38.47;20.37;;;;;;;;;;5042778;28;20201;-70
2021/03/11 01:37:51;;;;;;;36.30;19.90;;;;;;;;;;5036051;28;20231;-69
2021/03/11 01:40:17;;;;;;;36.90;20.17;;;;;;;;;;5036958;28;20322;-69
2021/03/11 01:42:42;;;;;;;34.33;18.20;;;;;;;;;;5025016;28;20193;-69
2021/03/11 01:45:08;;;;;;;37.53;19.23;;;;;;;;;;5039262;28;20193;-70
2021/03/11 01:47:34;;;;;;;35.13;19.03;;;;;;;;;;5047707;28;20177;-70
2021/03/11 01:50:00;;;;;;;31.17;18.00;;;;;;;;;;5030199;28;20328;-70
2021/03/11 01:52:25;;;;;;;31.70;17.63;;;;;;;;;;5042360;28;20269;-70
2021/03/11 01:54:51;;;;;;;31.83;18.60;;;;;;;;;;5032562;28;20193;-69
2021/03/11 01:57:17;;;;;;;34.27;18.53;;;;;;;;;;5041954;28;20181;-70
2021/03/11 01:59:42;;;;;;;32.53;17.30;;;;;;;;;;5031149;28;20725;-70
2021/03/11 02:02:08;;;;;;;30.67;17.43;;;;;;;;;;5036549;28;20269;-71
2021/03/11 02:04:33;;;;;;;34.30;17.53;;;;;;;;;;5032375;28;20240;-70
2021/03/11 02:06:59;;;;;;;29.50;16.43;;;;;;;;;;5044569;28;20177;-71
2021/03/11 02:09:24;;;;;;;30.77;16.03;;;;;;;;;;5032572;28;20192;-70
2021/03/11 02:12:08;;;;;;;29.07;16.13;;;;;;;;;;5039651;28;20189;-69
2021/03/11 02:14:41;;;;;;;31.63;16.23;;;;;;;;;;5030416;28;20840;-69
2021/03/11 02:17:08;;;;;;;30.43;16.23;;;;;;;;;;5037982;28;20188;-70
2021/03/11 02:19:39;;;;;;;28.30;16.10;;;;;;;;;;5028125;28;20205;-70
2021/03/11 02:22:40;;;;;;;26.87;15.30;;;;;;;;;;5041313;28;20213;-70
2021/03/11 02:25:20;;;;;;;28.17;15.37;;;;;;;;;;5029841;28;20188;-70
2021/03/11 02:27:57;;;;;;;28.17;15.33;;;;;;;;;;5035031;28;20197;-70
2021/03/11 02:30:23;;;;;;;26.87;15.70;;;;;;;;;;5031330;28;20193;-69
2021/03/11 02:32:50;;;;;;;28.70;15.90;;;;;;;;;;5038783;28;20175;-70
2021/03/11 02:35:16;;;;;;;30.10;15.27;;;;;;;;;;5031412;28;20209;-70
2021/03/11 02:37:46;;;;;;;30.07;16.20;;;;;;;;;;5040711;28;20593;-70
2021/03/11 02:40:23;;;;;;;26.60;15.33;;;;;;;;;;5037631;28;20653;-70
2021/03/11 02:42:50;;;;;;;27.87;15.77;;;;;;;;;;5033595;28;20598;-70
2021/03/11 02:45:19;;;;;;;24.93;15.07;;;;;;;;;;5039296;28;20850;-70
2021/03/11 02:47:45;;;;;;;27.80;15.67;;;;;;;;;;5031494;28;20526;-70
2021/03/11 02:50:12;;;;;;;26.87;15.60;;;;;;;;;;5044006;28;20200;-70
2021/03/11 02:52:37;;;;;;;26.77;14.67;;;;;;;;;;5032994;28;20243;-69
2021/03/11 02:55:05;;;;;;;28.53;15.97;;;;;;;;;;5039049;28;20368;-70
2021/03/11 02:57:31;;;;;;;26.07;15.27;;;;;;;;;;5030052;28;20281;-70
2021/03/11 02:59:58;;;;;;;23.37;13.87;;;;;;;;;;5038072;28;20271;-69
2021/03/11 03:02:25;;;;;;;22.73;13.93;;;;;;;;;;5027583;28;20648;-70
2021/03/11 03:04:53;;;;;;;22.23;13.83;;;;;;;;;;5039892;28;20236;-70
2021/03/11 03:07:20;;;;;;;28.73;15.33;;;;;;;;;;5027255;28;20663;-70
2021/03/11 03:09:51;;;;;;;21.40;13.17;;;;;;;;;;5038295;28;20528;-70
2021/03/11 03:12:17;;;;;;;24.13;13.63;;;;;;;;;;5036690;28;20181;-70
2021/03/11 03:14:45;;;;;;;23.37;14.13;;;;;;;;;;5037666;28;20248;-70
2021/03/11 03:17:13;;;;;;;24.27;14.27;;;;;;;;;;5037324;28;20185;-68
2021/03/11 03:19:39;;;;;;;23.33;13.40;;;;;;;;;;5027444;28;20284;-71
2021/03/11 03:22:06;;;;;;;23.50;13.53;;;;;;;;;;5039656;28;20697;-71
2021/03/11 03:24:32;;;;;;;23.87;14.00;;;;;;;;;;5029366;28;20675;-70
2021/03/11 03:26:58;;;;;;;21.13;12.03;;;;;;;;;;5040313;28;20186;-69
2021/03/11 03:29:23;;;;;;;21.57;11.63;;;;;;;;;;5032711;28;20185;-70
2021/03/11 03:31:48;;;;;;;20.27;12.07;;;;;;;;;;5039556;28;20178;-70
2021/03/11 03:34:14;;;;;;;21.20;11.13;;;;;;;;;;5030457;28;20182;-70
2021/03/11 03:36:40;;;;;;;20.40;12.20;;;;;;;;;;5036660;28;20188;-69
2021/03/11 03:39:05;;;;;;;20.30;11.63;;;;;;;;;;5028198;28;20262;-71
2021/03/11 03:41:34;;;;;;;20.43;12.23;;;;;;;;;;5036352;28;20490;-74
2021/03/11 03:44:01;;;;;;;16.87;11.13;;;;;;;;;;5031697;28;20201;-72
2021/03/11 03:46:27;;;;;;;19.63;10.77;;;;;;;;;;5037977;28;20201;-72
2021/03/11 03:49:01;;;;;;;20.30;12.07;;;;;;;;;;5035287;28;20598;-71
2021/03/11 03:51:30;;;;;;;18.77;11.93;;;;;;;;;;5039695;28;20199;-70
2021/03/11 03:54:00;;;;;;;19.10;11.33;;;;;;;;;;5038659;28;20186;-70
2021/03/11 03:56:34;;;;;;;19.53;10.80;;;;;;;;;;5027521;28;20186;-71
2021/03/11 03:59:05;;;;;;;20.83;12.30;;;;;;;;;;5039186;28;20197;-70
2021/03/11 04:01:34;;;;;;;20.90;13.00;;;;;;;;;;5025685;28;21279;-70
2021/03/11 04:04:02;;;;;;;19.27;11.40;;;;;;;;;;5043670;28;20210;-71
2021/03/11 04:06:29;;;;;;;18.83;11.43;;;;;;;;;;5024421;28;20243;-71
2021/03/11 04:08:55;;;;;;;19.73;12.20;;;;;;;;;;5035871;28;20855;-71
2021/03/11 04:11:21;;;;;;;18.83;11.87;;;;;;;;;;5030720;28;20215;-71
2021/03/11 04:13:48;;;;;;;18.53;10.97;;;;;;;;;;5035483;28;20194;-70
2021/03/11 04:16:16;;;;;;;18.37;11.57;;;;;;;;;;5027341;28;20649;-70
2021/03/11 04:18:42;;;;;;;21.10;11.40;;;;;;;;;;5039162;28;20205;-70
2021/03/11 04:21:08;;;;;;;21.17;11.27;;;;;;;;;;5027275;28;20613;-71
2021/03/11 04:23:36;;;;;;;18.80;11.33;;;;;;;;;;5036588;28;20258;-71
2021/03/11 04:26:02;;;;;;;18.17;10.73;;;;;;;;;;5027113;28;20185;-71
2021/03/11 04:28:28;;;;;;;16.57;10.37;;;;;;;;;;5035298;28;20613;-71
2021/03/11 04:30:53;;;;;;;16.77;10.47;;;;;;;;;;5034116;28;20182;-70
2021/03/11 04:33:19;;;;;;;17.17;10.90;;;;;;;;;;5021814;28;20265;-71
2021/03/11 04:35:44;;;;;;;16.47;10.97;;;;;;;;;;5032298;28;20182;-71
2021/03/11 04:38:10;;;;;;;17.93;10.47;;;;;;;;;;5028833;28;20319;-71
2021/03/11 04:40:35;;;;;;;14.17;9.70;;;;;;;;;;5035938;28;20209;-70
2021/03/11 04:43:01;;;;;;;18.90;9.73;;;;;;;;;;5027910;28;20194;-70
2021/03/11 04:45:27;;;;;;;15.63;10.07;;;;;;;;;;5028538;28;20170;-70
2021/03/11 04:47:53;;;;;;;16.20;10.10;;;;;;;;;;5030171;28;20726;-70
2021/03/11 04:50:18;;;;;;;14.33;9.70;;;;;;;;;;5033808;28;20210;-70
2021/03/11 04:52:44;;;;;;;15.37;10.10;;;;;;;;;;5022533;28;20268;-69
2021/03/11 04:55:10;;;;;;;14.80;9.10;;;;;;;;;;5035380;28;20182;-70
2021/03/11 04:57:35;;;;;;;14.67;10.00;;;;;;;;;;5027897;28;20527;-70
2021/03/11 05:00:02;;;;;;;14.83;10.00;;;;;;;;;;5035000;28;20185;-69
2021/03/11 05:02:32;;;;;;;14.03;9.83;;;;;;;;;;5032183;28;20280;-70
2021/03/11 05:05:00;;;;;;;15.17;10.10;;;;;;;;;;5029251;28;20224;-69
2021/03/11 05:07:25;;;;;;;16.80;11.03;;;;;;;;;;5035994;28;20549;-69
2021/03/11 05:09:50;;;;;;;14.90;9.87;;;;;;;;;;5026101;28;20212;-68
2021/03/11 05:12:16;;;;;;;13.27;9.13;;;;;;;;;;5038448;28;20652;-69
2021/03/11 05:14:41;;;;;;;12.90;9.00;;;;;;;;;;5026768;28;20546;-69
2021/03/11 05:17:07;;;;;;;13.33;9.77;;;;;;;;;;5033387;28;20200;-68
2021/03/11 05:19:32;;;;;;;13.90;9.67;;;;;;;;;;5028885;28;20223;-68
2021/03/11 05:21:59;;;;;;;14.20;9.57;;;;;;;;;;5037808;28;20205;-68
2021/03/11 05:24:24;;;;;;;16.07;10.03;;;;;;;;;;5023939;28;20642;-69
2021/03/11 05:26:49;;;;;;;16.47;9.30;;;;;;;;;;5033211;28;20207;-69
2021/03/11 05:29:15;;;;;;;14.40;9.97;;;;;;;;;;5026649;28;20626;-70
2021/03/11 05:31:40;;;;;;;14.70;9.87;;;;;;;;;;5027979;28;20641;-69
2021/03/11 05:34:05;;;;;;;15.10;10.00;;;;;;;;;;5035439;28;20201;-69
2021/03/11 05:36:30;;;;;;;19.17;11.37;;;;;;;;;;4332539;28;10000684;-69
2021/03/11 05:38:56;;;;;;;15.97;10.50;;;;;;;;;;5031041;28;20248;-69
2021/03/11 05:41:22;;;;;;;16.63;10.87;;;;;;;;;;5028765;28;20194;-69
2021/03/11 05:43:50;;;;;;;16.83;11.10;;;;;;;;;;5030947;28;20193;-71
2021/03/11 05:46:17;;;;;;;18.10;10.93;;;;;;;;;;5021986;28;20302;-70
2021/03/11 05:48:43;;;;;;;16.60;11.17;;;;;;;;;;5029479;28;20557;-69
2021/03/11 05:51:09;;;;;;;18.63;11.93;;;;;;;;;;5022966;28;20635;-69
2021/03/11 05:53:36;;;;;;;19.90;11.77;;;;;;;;;;5029275;28;20182;-69
2021/03/11 05:56:02;;;;;;;18.23;11.90;;;;;;;;;;5026331;28;20612;-69
2021/03/11 05:58:27;;;;;;;21.03;12.30;;;;;;;;;;5033318;28;20209;-68
2021/03/11 06:00:53;;;;;;;17.10;12.23;;;;;;;;;;5026232;28;20206;-70
2021/03/11 06:03:21;;;;;;;21.63;12.63;;;;;;;;;;5034641;28;20203;-70
2021/03/11 06:05:47;;;;;;;18.20;12.53;;;;;;;;;;5031463;28;20193;-70
2021/03/11 06:08:13;;;;;;;20.20;12.80;;;;;;;;;;5030102;28;20190;-69
2021/03/11 06:10:39;;;;;;;20.13;12.77;;;;;;;;;;5031026;28;20516;-70
2021/03/11 06:13:04;;;;;;;22.23;13.03;;;;;;;;;;5020258;28;20266;-70
2021/03/11 06:15:32;;;;;;;22.77;14.90;;;;;;;;;;5029998;28;20518;-70
2021/03/11 06:17:59;;;;;;;22.03;13.63;;;;;;;;;;5030487;28;20266;-70
2021/03/11 06:20:24;;;;;;;22.37;14.07;;;;;;;;;;5032752;28;20254;-70
2021/03/11 06:22:50;;;;;;;24.30;13.83;;;;;;;;;;5026566;28;20193;-69
2021/03/11 06:25:16;;;;;;;25.33;15.30;;;;;;;;;;5038048;28;20197;-70
2021/03/11 06:27:42;;;;;;;22.10;14.37;;;;;;;;;;5027894;28;20178;-69
2021/03/11 06:30:27;;;;;;;23.53;14.23;;;;;;;;;;5031474;28;20235;-68
2021/03/11 06:32:54;;;;;;;21.37;13.43;;;;;;;;;;5020394;28;20216;-68
2021/03/11 06:35:20;;;;;;;24.37;14.73;;;;;;;;;;5035336;28;20200;-68
2021/03/11 06:37:48;;;;;;;20.70;13.83;;;;;;;;;;5027790;28;20236;-70
2021/03/11 06:40:19;;;;;;;20.47;13.00;;;;;;;;;;5033803;28;20190;-69
2021/03/11 06:42:45;;;;;;;22.00;13.70;;;;;;;;;;5033929;28;20704;-71
2021/03/11 06:45:20;;;;;;;21.93;12.83;;;;;;;;;;5031741;28;20198;-69
2021/03/11 06:47:46;;;;;;;20.40;12.93;;;;;;;;;;5036487;28;20193;-68
2021/03/11 06:50:11;;;;;;;23.03;12.93;;;;;;;;;;5026221;28;20706;-68
2021/03/11 06:52:37;;;;;;;20.37;12.97;;;;;;;;;;5036764;28;20189;-69
2021/03/11 06:55:05;;;;;;;19.50;12.17;;;;;;;;;;5024242;28;20194;-68
2021/03/11 06:57:39;;;;;;;22.73;12.20;;;;;;;;;;5032693;28;20178;-68
2021/03/11 07:00:13;;;;;;;22.20;11.70;;;;;;;;;;5027633;28;20277;-65
2021/03/11 07:02:54;;;;;;;20.05;11.68;;;;;;;;;;5033510;28;20182;-68
2021/03/11 07:05:22;;;;;;;19.10;11.30;;;;;;;;;;5029325;28;20205;-70
2021/03/11 07:07:48;;;;;;;18.30;11.03;;;;;;;;;;5031383;28;20189;-69
2021/03/11 07:10:31;;;;;;;17.83;11.10;;;;;;;;;;5023921;28;20544;-69
2021/03/11 07:12:58;;;;;;;17.13;10.73;;;;;;;;;;5036788;28;20215;-69
2021/03/11 07:15:26;;;;;;;18.02;10.73;;;;;;;;;;5026319;28;20300;-70
2021/03/11 07:17:53;;;;;;;17.52;10.75;;;;;;;;;;5031672;28;20550;-69
2021/03/11 07:20:28;;;;;;;18.67;10.23;;;;;;;;;;5029697;28;20191;-68
2021/03/11 07:23:11;;;;;;;16.08;10.45;;;;;;;;;;5036957;28;20185;-69
2021/03/11 07:25:39;;;;;;;17.27;10.93;;;;;;;;;;5026872;28;20185;-69
2021/03/11 07:28:06;;;;;;;18.27;9.70;;;;;;;;;;5028292;28;20173;-69
2021/03/11 07:30:47;;;;;;;17.17;10.05;;;;;;;;;;5021514;28;20591;-70
2021/03/11 07:33:14;;;;;;;15.63;9.27;;;;;;;;;;5029788;28;20236;-69
2021/03/11 07:35:41;;;;;;;15.95;9.35;;;;;;;;;;5026162;28;20190;-70
2021/03/11 07:38:07;;;;;;;15.73;9.27;;;;;;;;;;5030431;28;20240;-69
2021/03/11 07:40:33;;;;;;;13.53;8.70;;;;;;;;;;5030609;28;20197;-68
2021/03/11 07:43:00;;;;;;;14.47;8.30;;;;;;;;;;4685317;28;10000558;-66
2021/03/11 07:45:26;;;;;;;12.93;8.43;;;;;;;;;;5036388;28;20198;-69
2021/03/11 07:47:52;;;;;;;11.57;7.88;;;;;;;;;;5028121;28;20269;-69
2021/03/11 07:50:18;;;;;;;11.90;7.70;;;;;;;;;;5037193;28;20611;-66
2021/03/11 07:52:44;;;;;;;12.88;7.80;;;;;;;;;;5031283;28;20272;-67
2021/03/11 07:55:11;;;;;;;12.32;7.22;;;;;;;;;;5037419;28;20568;-69
2021/03/11 07:57:40;;;;;;;11.15;7.10;;;;;;;;;;5023311;28;20218;-67
2021/03/11 08:00:06;;;;;;;11.10;6.50;;;;;;;;;;5033194;28;20197;-64
2021/03/11 08:02:33;;;;;;;13.02;6.43;;;;;;;;;;5024390;28;20499;-65
2021/03/11 08:04:59;;;;;;;12.02;6.50;;;;;;;;;;5032996;28;20729;-68
2021/03/11 08:07:26;;;;;;;10.50;5.97;;;;;;;;;;5025185;28;20284;-66
2021/03/11 08:09:56;;;;;;;10.13;5.80;;;;;;;;;;5031218;28;20190;-69
2021/03/11 08:12:39;;;;;;;12.63;5.35;;;;;;;;;;5020611;28;20184;-67
2021/03/11 08:15:31;;;;;;;16.00;5.35;;;;;;;;;;5032720;28;20189;-69
2021/03/11 08:17:56;;;;;;;11.25;4.60;;;;;;;;;;5029109;28;20222;-67
2021/03/11 08:20:22;;;;;;;12.32;4.82;;;;;;;;;;5034861;28;20696;-68
2021/03/11 08:22:55;;;;;;;13.55;4.72;;;;;;;;;;5022579;28;20185;-67
2021/03/11 08:25:38;;;;;;;12.40;4.00;;;;;;;;;;5035519;28;20186;-68
2021/03/11 08:28:09;;;;;;;11.20;4.32;;;;;;;;;;5027586;28;20193;-70
2021/03/11 08:30:37;;;;;;;11.15;4.75;;;;;;;;;;5032020;28;20185;-69
2021/03/11 08:33:07;;;;;;;11.18;4.30;;;;;;;;;;5034902;28;20189;-69
2021/03/11 08:35:40;;;;;;;14.57;4.60;;;;;;;;;;5028064;28;20292;-68
2021/03/11 08:38:21;;;;;;;11.68;4.15;;;;;;;;;;5036725;28;20236;-69
2021/03/11 08:41:08;;;;;;;9.23;4.20;;;;;;;;;;5029054;28;20588;-67
2021/03/11 08:43:37;;;;;;;8.63;4.10;;;;;;;;;;5037257;28;20193;-69
2021/03/11 08:46:03;;;;;;;8.30;3.95;;;;;;;;;;5024938;28;20285;-67
2021/03/11 08:48:57;;;;;;;10.68;4.57;;;;;;;;;;5036722;28;20591;-71
2021/03/11 08:51:22;;;;;;;8.52;4.10;;;;;;;;;;5023977;28;20221;-69
2021/03/11 08:53:58;;;;;;;10.32;4.20;;;;;;;;;;5039763;28;20220;-70
2021/03/11 08:56:27;;;;;;;9.18;4.38;;;;;;;;;;5026169;28;20617;-70
2021/03/11 08:58:56;;;;;;;10.23;3.45;;;;;;;;;;5039539;28;20588;-70
2021/03/11 09:01:28;;;;;;;6.90;2.85;;;;;;;;;;5026987;28;20186;-69
2021/03/11 09:03:54;;;;;;;9.68;4.00;;;;;;;;;;5041713;28;20722;-69
2021/03/11 09:06:20;;;;;;;11.95;3.40;;;;;;;;;;5029291;28;20216;-70
2021/03/11 09:08:52;;;;;;;12.55;3.60;;;;;;;;;;5041234;28;20712;-67
2021/03/11 09:11:25;;;;;;;11.75;3.28;;;;;;;;;;5027350;28;20196;-67
2021/03/11 09:13:52;;;;;;;11.82;3.10;;;;;;;;;;5034046;28;20196;-69
2021/03/11 09:16:26;;;;;;;12.80;3.15;;;;;;;;;;5032878;28;20255;-67
2021/03/11 09:18:58;;;;;;;11.07;2.90;;;;;;;;;;5038812;28;20212;-68
2021/03/11 09:21:36;;;;;;;9.68;2.42;;;;;;;;;;5028792;28;20194;-69
2021/03/11 09:24:02;;;;;;;12.90;2.53;;;;;;;;;;5031965;28;20182;-67
2021/03/11 09:26:33;;;;;;;20.30;2.95;;;;;;;;;;5030674;28;20194;-69
2021/03/11 09:28:58;;;;;;;15.20;3.05;;;;;;;;;;5034461;28;20194;-67
2021/03/11 09:31:28;;;;;;;14.82;2.45;;;;;;;;;;5022183;28;20196;-69
2021/03/11 09:33:59;;;;;;;16.85;2.42;;;;;;;;;;5046742;28;20599;-68
2021/03/11 09:36:24;;;;;;;15.60;3.47;;;;;;;;;;5032068;28;20191;-69
2021/03/11 09:38:51;;;;;;;17.20;2.95;;;;;;;;;;5040380;28;20669;-68
2021/03/11 09:41:24;;;;;;;16.95;3.13;;;;;;;;;;5039862;28;20186;-70
2021/03/11 09:43:49;;;;;;;18.45;2.95;;;;;;;;;;5035568;28;20259;-69
2021/03/11 09:46:17;;;;;;;19.63;3.28;;;;;;;;;;5044705;28;20232;-69
2021/03/11 09:48:53;;;;;;;14.52;2.78;;;;;;;;;;5036045;28;20194;-68
2021/03/11 09:51:22;;;;;;;14.43;2.67;;;;;;;;;;5043675;28;20181;-68
2021/03/11 09:53:56;;;;;;;22.52;3.40;;;;;;;;;;5034271;28;20200;-68
2021/03/11 09:56:38;;;;;;;20.63;3.75;;;;;;;;;;5040467;28;20193;-68
2021/03/11 09:59:06;;;;;;;23.52;3.35;;;;;;;;;;5030727;28;20286;-68
2021/03/11 10:01:35;;;;;;;19.40;3.47;;;;;;;;;;5034776;28;20181;-69
2021/03/11 10:04:23;;;;;;;22.70;3.42;;;;;;;;;;5028558;28;20221;-70
2021/03/11 10:06:53;;;;;;;15.38;3.63;;;;;;;;;;5042518;28;20200;-68
2021/03/11 10:09:20;;;;;;;21.77;3.67;;;;;;;;;;5029556;28;20185;-70
2021/03/11 10:11:47;;;;;;;24.85;4.20;;;;;;;;;;5045398;28;20235;-68
2021/03/11 10:14:23;;;;;;;24.70;4.30;;;;;;;;;;5028381;28;20550;-68
2021/03/11 10:16:51;;;;;;;24.08;3.92;;;;;;;;;;5037674;28;20545;-68
2021/03/11 10:19:17;;;;;;;18.65;3.85;;;;;;;;;;5034574;28;20270;-70
2021/03/11 10:22:02;;;;;;;25.95;4.13;;;;;;;;;;5036203;28;20193;-69
2021/03/11 10:24:38;;;;;;;25.42;3.97;;;;;;;;;;5030065;28;20185;-67
2021/03/11 10:27:17;;;;;;;23.98;4.07;;;;;;;;;;5039863;28;20190;-68
2021/03/11 10:29:42;;;;;;;20.80;4.10;;;;;;;;;;5031174;28;20267;-68
2021/03/11 10:32:07;;;;;;;31.60;4.00;;;;;;;;;;5038544;28;20272;-70
2021/03/11 10:34:49;;;;;;;29.00;4.97;;;;;;;;;;5031011;28;20702;-68
2021/03/11 10:37:29;;;;;;;22.75;4.30;;;;;;;;;;5041021;28;20576;-66
2021/03/11 10:40:06;;;;;;;24.00;4.63;;;;;;;;;;5032917;28;20189;-67
2021/03/11 10:42:49;;;;;;;18.08;3.85;;;;;;;;;;5047624;28;20193;-67
2021/03/11 10:45:21;;;;;;;25.45;4.20;;;;;;;;;;5032198;28;20321;-67
2021/03/11 10:48:04;;;;;;;16.92;3.47;;;;;;;;;;5045238;28;20190;-69
2021/03/11 10:50:36;;;;;;;23.52;4.63;;;;;;;;;;5029510;28;20186;-69
2021/03/11 10:53:01;;;;;;;32.00;3.97;;;;;;;;;;5040777;28;20234;-69
2021/03/11 10:55:33;;;;;;;26.75;5.00;;;;;;;;;;5035870;28;20212;-68
2021/03/11 10:57:59;;;;;;;24.20;4.28;;;;;;;;;;5041149;28;20213;-67
2021/03/11 11:00:30;;;;;;;22.65;3.90;;;;;;;;;;5035170;28;20208;-69
2021/03/11 11:02:58;;;;;;;24.63;4.45;;;;;;;;;;5030206;28;20273;-68
2021/03/11 11:05:24;;;;;;;17.58;3.80;;;;;;;;;;5033644;28;20342;-69
2021/03/11 11:07:50;;;;;;;15.15;3.30;;;;;;;;;;5030952;28;20539;-67
2021/03/11 11:10:21;;;;;;;22.65;3.65;;;;;;;;;;5035244;28;20182;-68
2021/03/11 11:12:47;;;;;;;18.88;3.45;;;;;;;;;;5036142;28;20289;-67
2021/03/11 11:15:13;;;;;;;20.08;3.72;;;;;;;;;;5032072;28;20273;-68
2021/03/11 11:17:39;;;;;;;18.40;3.05;;;;;;;;;;5029688;28;20200;-66
2021/03/11 11:20:09;;;;;;;26.27;4.57;;;;;;;;;;5038131;28;20177;-69
2021/03/11 11:22:35;;;;;;;20.92;3.33;;;;;;;;;;5034260;28;20235;-68
2021/03/11 11:25:01;;;;;;;17.42;3.42;;;;;;;;;;5040724;28;20189;-68
2021/03/11 11:27:26;;;;;;;15.73;3.40;;;;;;;;;;5030095;28;20181;-68
2021/03/11 11:29:52;;;;;;;20.02;3.42;;;;;;;;;;5039398;28;20188;-67
2021/03/11 11:32:17;;;;;;;19.75;3.45;;;;;;;;;;5040964;28;20545;-68
2021/03/11 11:34:43;;;;;;;19.35;3.55;;;;;;;;;;5033839;28;20193;-68
2021/03/11 11:37:08;;;;;;;22.45;4.10;;;;;;;;;;5035731;28;20222;-67
2021/03/11 11:39:33;;;;;;;14.70;3.40;;;;;;;;;;5029502;28;20213;-68
2021/03/11 11:41:59;;;;;;;21.50;3.90;;;;;;;;;;5039199;28;20657;-68
2021/03/11 11:44:24;;;;;;;21.30;3.72;;;;;;;;;;5032320;28;20194;-68
2021/03/11 11:46:49;;;;;;;23.13;4.35;;;;;;;;;;5038113;28;20312;-68
2021/03/11 11:49:15;;;;;;;27.45;4.35;;;;;;;;;;5027159;28;20190;-67
2021/03/11 11:51:41;;;;;;;22.77;4.05;;;;;;;;;;5031756;28;20591;-68
2021/03/11 11:54:06;;;;;;;19.30;3.45;;;;;;;;;;5028619;28;20518;-68
2021/03/11 11:56:32;;;;;;;25.52;3.97;;;;;;;;;;5042952;28;20648;-69
2021/03/11 11:58:57;;;;;;;21.58;4.13;;;;;;;;;;5022338;28;20753;-69
2021/03/11 12:01:23;;;;;;;23.50;4.15;;;;;;;;;;5037801;28;20279;-68
2021/03/11 12:03:49;;;;;;;25.75;4.15;;;;;;;;;;5038238;28;20204;-68
2021/03/11 12:06:14;;;;;;;25.48;4.40;;;;;;;;;;5027629;28;20189;-68
2021/03/11 12:08:40;;;;;;;28.13;4.53;;;;;;;;;;5036706;28;20267;-68
2021/03/11 12:11:05;;;;;;;25.00;4.38;;;;;;;;;;5031541;28;20268;-69
2021/03/11 12:13:32;;;;;;;18.35;3.75;;;;;;;;;;5034636;28;20182;-68
2021/03/11 12:15:58;;;;;;;25.67;4.28;;;;;;;;;;5026429;28;20271;-68
2021/03/11 12:18:24;;;;;;;22.88;3.20;;;;;;;;;;5037870;28;20330;-69
2021/03/11 12:20:49;;;;;;;21.80;3.53;;;;;;;;;;5033390;28;20716;-69
2021/03/11 12:23:15;;;;;;;26.20;4.18;;;;;;;;;;5034617;28;20178;-69
2021/03/11 12:25:40;;;;;;;32.05;5.15;;;;;;;;;;5029697;28;20225;-69
2021/03/11 12:28:06;;;;;;;21.40;3.85;;;;;;;;;;5037088;28;20185;-68
2021/03/11 12:30:32;;;;;;;25.67;4.30;;;;;;;;;;5033118;28;20197;-69
2021/03/11 12:32:58;;;;;;;23.08;3.55;;;;;;;;;;5034418;28;20185;-68
2021/03/11 12:35:25;;;;;;;25.02;3.60;;;;;;;;;;5034445;28;20668;-67
2021/03/11 12:37:51;;;;;;;27.02;4.13;;;;;;;;;;5028579;28;20233;-69
2021/03/11 12:40:17;;;;;;;26.02;3.97;;;;;;;;;;5033877;28;20275;-68
2021/03/11 12:42:46;;;;;;;21.35;3.40;;;;;;;;;;5028930;28;20224;-69
2021/03/11 12:45:16;;;;;;;22.63;4.47;;;;;;;;;;5041430;28;20285;-68
2021/03/11 12:47:42;;;;;;;24.83;3.83;;;;;;;;;;5030857;28;20588;-68
2021/03/11 12:50:08;;;;;;;18.60;3.47;;;;;;;;;;5041843;28;20209;-68
2021/03/11 12:52:33;;;;;;;30.45;4.07;;;;;;;;;;5029124;28;20286;-68
2021/03/11 12:54:59;;;;;;;28.33;4.20;;;;;;;;;;5041556;28;20186;-68
2021/03/11 12:57:24;;;;;;;23.13;4.25;;;;;;;;;;5023323;28;20208;-68
2021/03/11 12:59:50;;;;;;;28.73;4.97;;;;;;;;;;5036586;28;20208;-67
2021/03/11 13:02:15;;;;;;;26.15;4.88;;;;;;;;;;5029951;28;20224;-68
2021/03/11 13:04:40;;;;;;;18.60;3.78;;;;;;;;;;5041786;28;20295;-68
2021/03/11 13:07:06;;;;;;;20.20;4.10;;;;;;;;;;5039740;28;20285;-67
2021/03/11 13:09:33;;;;;;;22.20;3.88;;;;;;;;;;5030205;28;20222;-68
2021/03/11 13:11:58;;;;;;;26.83;4.47;;;;;;;;;;5037997;28;20666;-69
2021/03/11 13:14:24;;;;;;;23.88;3.72;;;;;;;;;;5032649;28;20266;-68
2021/03/11 13:16:49;;;;;;;24.90;4.03;;;;;;;;;;5037014;28;20530;-68
2021/03/11 13:19:17;;;;;;;26.88;3.92;;;;;;;;;;5033443;28;20811;-69
2021/03/11 13:21:43;;;;;;;27.48;3.80;;;;;;;;;;5039074;28;20208;-69
2021/03/11 13:24:08;;;;;;;23.08;4.18;;;;;;;;;;5033378;28;20648;-66
2021/03/11 13:26:34;;;;;;;28.02;4.50;;;;;;;;;;5038221;28;20197;-69
2021/03/11 13:28:59;;;;;;;25.25;3.97;;;;;;;;;;5030265;28;20212;-69
2021/03/11 13:31:24;;;;;;;26.58;4.15;;;;;;;;;;5030048;28;20207;-68
2021/03/11 13:33:50;;;;;;;22.23;3.88;;;;;;;;;;5028778;28;20277;-69
2021/03/11 13:36:16;;;;;;;24.75;4.22;;;;;;;;;;4342635;28;10000745;-68
2021/03/11 13:38:41;;;;;;;23.02;4.13;;;;;;;;;;5029409;28;20234;-69
2021/03/11 13:41:06;;;;;;;24.70;4.32;;;;;;;;;;5028510;28;20401;-69
2021/03/11 13:43:32;;;;;;;26.05;4.45;;;;;;;;;;5031835;28;20197;-68
2021/03/11 13:45:57;;;;;;;26.38;4.65;;;;;;;;;;5028997;28;20194;-69
2021/03/11 13:48:23;;;;;;;21.60;3.97;;;;;;;;;;5031631;28;20273;-68
2021/03/11 13:50:48;;;;;;;23.65;4.07;;;;;;;;;;5030754;28;20224;-69
2021/03/11 13:53:14;;;;;;;20.30;4.05;;;;;;;;;;5034482;28;20194;-68
2021/03/11 13:55:39;;;;;;;26.98;4.22;;;;;;;;;;5024676;28;20203;-68
2021/03/11 13:58:05;;;;;;;22.33;3.92;;;;;;;;;;5034055;28;20201;-69
2021/03/11 14:00:31;;;;;;;18.58;3.80;;;;;;;;;;5027861;28;20190;-69
2021/03/11 14:02:56;;;;;;;27.35;5.03;;;;;;;;;;5032655;28;20184;-68
2021/03/11 14:05:22;;;;;;;27.40;3.78;;;;;;;;;;5030594;28;20237;-69
2021/03/11 14:07:48;;;;;;;26.30;4.00;;;;;;;;;;5035641;28;20655;-68
2021/03/11 14:10:13;;;;;;;32.42;5.43;;;;;;;;;;5036092;28;20202;-69
2021/03/11 14:12:39;;;;;;;18.88;3.60;;;;;;;;;;5032364;28;20193;-69
2021/03/11 14:15:05;;;;;;;20.98;3.90;;;;;;;;;;5034607;28;20275;-69
2021/03/11 14:17:31;;;;;;;20.80;4.65;;;;;;;;;;5024713;28;20186;-69
2021/03/11 14:19:56;;;;;;;24.38;4.00;;;;;;;;;;5035224;28;20213;-69
2021/03/11 14:22:21;;;;;;;22.83;4.40;;;;;;;;;;5029608;28;20181;-68
2021/03/11 14:24:47;;;;;;;20.90;4.10;;;;;;;;;;5042562;28;20545;-67
2021/03/11 14:27:12;;;;;;;23.15;3.75;;;;;;;;;;5024804;28;20210;-68